createdAt,value
2023-03-15T00:05:13.207Z,71.54
2023-03-15T00:15:16.350Z,71.50
2023-03-15T00:25:19.539Z,71.52
2023-03-15T00:35:24.204Z,72.49
2023-03-15T00:45:27.360Z,73.94
2023-03-15T00:55:30.539Z,73.89
2023-03-15T01:05:33.981Z,74.39
2023-03-15T01:15:37.346Z,75.02
2023-03-15T01:25:40.697Z,75.46
2023-03-15T01:35:44.722Z,75.91
2023-03-15T01:46:03.694Z,76.09
2023-03-15T01:56:11.512Z,75.64
2023-03-15T02:06:19.038Z,75.57
2023-03-15T02:16:31.158Z,75.64
2023-03-15T02:26:45.557Z,75.59
2023-03-15T02:36:49.887Z,75.16
2023-03-15T02:46:55.315Z,75.09
2023-03-15T02:56:58.512Z,74.62
2023-03-15T03:07:01.639Z,74.56
2023-03-15T03:17:10.860Z,74.99
2023-03-15T03:27:15.765Z,75.12
2023-03-15T03:37:21.704Z,75.15
2023-03-15T03:47:30.441Z,74.80
2023-03-15T03:57:33.821Z,73.88
2023-03-15T04:07:38.748Z,74.13
2023-03-15T04:17:42.798Z,74.55
2023-03-15T04:27:46.673Z,74.76
2023-03-15T04:38:09.194Z,74.67
2023-03-15T04:48:36.219Z,74.50
2023-03-15T04:58:58.224Z,75.03
2023-03-15T05:09:39.818Z,74.75
2023-03-15T05:20:10.948Z,74.69
2023-03-15T05:30:38.385Z,74.72
2023-03-15T05:41:02.066Z,74.89
2023-03-15T05:51:20.818Z,74.99
2023-03-15T06:01:47.312Z,75.24
2023-03-15T06:11:55.908Z,75.02
2023-03-15T06:22:00.319Z,75.45
2023-03-15T06:32:12.264Z,75.45
2023-03-15T06:42:17.590Z,74.82
2023-03-15T06:52:21.685Z,74.62
2023-03-15T07:02:24.796Z,74.32
2023-03-15T07:12:28.506Z,73.96
2023-03-15T07:22:33.058Z,72.78
2023-03-15T07:32:36.394Z,72.75
2023-03-15T07:42:40.600Z,72.79
2023-03-15T07:52:43.968Z,72.43
2023-03-15T08:02:47.275Z,71.68
2023-03-15T08:12:50.960Z,70.91
2023-03-15T08:22:54.033Z,68.45
2023-03-15T08:32:57.261Z,67.37
2023-03-15T08:43:00.384Z,65.91
2023-03-15T08:53:03.542Z,65.15
2023-03-15T09:03:06.752Z,65.05
2023-03-15T09:13:09.863Z,64.21
2023-03-15T09:23:13.867Z,64.21
2023-03-15T09:33:17.073Z,63.17
2023-03-15T09:43:35.133Z,62.67
2023-03-15T09:53:52.073Z,61.12
2023-03-15T10:03:55.936Z,60.17
2023-03-15T10:14:30.326Z,60.25
2023-03-15T10:24:46.503Z,60.75
2023-03-15T10:34:52.503Z,60.24
2023-03-15T10:44:56.484Z,58.03
2023-03-15T10:55:04.653Z,57.80
2023-03-15T11:05:12.521Z,57.05
2023-03-15T11:15:16.878Z,57.37
2023-03-15T11:25:25.062Z,56.86
2023-03-15T11:35:39.580Z,55.64
2023-03-15T11:46:01.008Z,55.68
2023-03-15T11:56:25.551Z,55.76
2023-03-15T12:06:37.895Z,54.18
2023-03-15T12:16:46.831Z,54.41
2023-03-15T12:26:59.498Z,54.55
2023-03-15T12:37:12.873Z,54.39
2023-03-15T12:47:15.985Z,52.45
2023-03-15T12:57:23.373Z,51.88
2023-03-15T13:07:52.191Z,51.52
2023-03-15T13:18:03.896Z,50.30
2023-03-15T13:28:25.668Z,52.76
2023-03-15T13:38:44.872Z,52.98
2023-03-15T13:48:47.957Z,52.03
2023-03-15T13:58:52.159Z,52.12
2023-03-15T14:09:07.183Z,52.25
2023-03-15T14:19:27.719Z,52.95
2023-03-15T14:29:34.877Z,53.40
2023-03-15T14:39:41.935Z,53.12
2023-03-15T14:49:46.140Z,52.86
2023-03-15T14:59:50.201Z,53.69
2023-03-15T15:09:53.534Z,53.30
2023-03-15T15:19:56.563Z,51.48
2023-03-15T15:29:59.625Z,52.32
2023-03-15T15:40:05.308Z,52.95
2023-03-15T15:50:12.662Z,52.69
2023-03-15T16:00:29.684Z,52.42
2023-03-15T16:10:36.229Z,53.58
2023-03-15T16:20:43.072Z,52.16
2023-03-15T16:30:47.453Z,54.17
2023-03-15T16:40:53.338Z,54.28
2023-03-15T16:50:56.680Z,55.58
2023-03-15T17:00:59.765Z,55.73
2023-03-15T17:11:03.231Z,56.22
2023-03-15T17:21:06.670Z,57.07
2023-03-15T17:31:24.569Z,57.98
2023-03-15T17:41:37.355Z,58.46
2023-03-15T17:51:40.867Z,59.16
2023-03-15T18:01:46.502Z,59.93
2023-03-15T18:11:51.134Z,60.65
2023-03-15T18:21:54.188Z,61.35
2023-03-15T18:31:57.422Z,61.60
2023-03-15T18:42:01.094Z,62.15
2023-03-15T18:52:04.244Z,63.42
2023-03-15T19:02:09.986Z,64.05
2023-03-15T19:12:13.264Z,64.83
2023-03-15T19:22:16.422Z,64.56
2023-03-15T19:32:20.584Z,64.46
2023-03-15T19:42:23.698Z,64.67
2023-03-15T19:52:28.175Z,65.70
2023-03-15T20:02:33.358Z,66.20
2023-03-15T20:12:39.637Z,66.77
2023-03-15T20:22:44.662Z,66.49
2023-03-15T20:32:47.862Z,66.85
2023-03-15T20:42:51.338Z,66.97
2023-03-15T20:52:54.549Z,67.78
2023-03-15T21:02:57.652Z,67.91
2023-03-15T21:13:09.484Z,68.57
2023-03-15T21:23:13.141Z,68.90
2023-03-15T21:33:16.211Z,70.29
2023-03-15T21:43:20.381Z,70.46
2023-03-15T21:53:23.782Z,70.11
2023-03-15T22:03:28.717Z,69.88
2023-03-15T22:13:32.310Z,70.29
2023-03-15T22:23:35.419Z,70.40
2023-03-15T22:33:39.592Z,70.93
2023-03-15T22:43:42.809Z,71.21
2023-03-15T22:53:46.224Z,71.01
2023-03-15T23:03:49.497Z,70.88
2023-03-15T23:13:54.139Z,70.59
2023-03-15T23:23:57.538Z,70.84
2023-03-15T23:34:00.672Z,70.90
2023-03-15T23:44:03.949Z,70.04
2023-03-15T23:54:07.207Z,69.43
